sensor_id;sensor_type;location;lat;lon;timestamp;pressure;altitude;pressure_sealevel;temperature;humidity
84947;BME280;75241;51.692;5.196;2024-03-23T00:55:33;101177.31;;;5.94;86.90
84947;BME280;75241;51.692;5.196;2024-03-23T00:57:58;101160.84;;;5.94;86.87
84947;BME280;75241;51.692;5.196;2024-03-23T01:00:24;101160.84;;;5.94;86.87
84947;BME280;75241;51.692;5.196;2024-03-23T01:02:49;101159.94;;;5.95;87.25
84947;BME280;75241;51.692;5.196;2024-03-23T01:05:14;101153.81;;;5.97;87.08
84947;BME280;75241;51.692;5.196;2024-03-23T01:07:40;101148.56;;;5.99;87.09
84947;BME280;75241;51.692;5.196;2024-03-23T01:10:05;101139.88;;;6.00;87.22
84947;BME280;75241;51.692;5.196;2024-03-23T01:12:31;101129.47;;;6.00;86.95
84947;BME280;75241;51.692;5.196;2024-03-23T01:14:56;101119.91;;;6.01;86.88
84947;BME280;75241;51.692;5.196;2024-03-23T01:17:22;101112.09;;;5.99;86.61
84947;BME280;75241;51.692;5.196;2024-03-23T01:19:47;101113.00;;;5.98;86.61
84947;BME280;75241;51.692;5.196;2024-03-23T01:22:12;101112.16;;;5.97;86.79
84947;BME280;75241;51.692;5.196;2024-03-23T01:24:38;101110.41;;;5.98;86.93
84947;BME280;75241;51.692;5.196;2024-03-23T01:27:04;101133.88;;;5.96;87.09
84947;BME280;75241;51.692;5.196;2024-03-23T01:29:29;101124.38;;;5.95;87.31
84947;BME280;75241;51.692;5.196;2024-03-23T01:31:55;101128.69;;;5.95;87.12
84947;BME280;75241;51.692;5.196;2024-03-23T01:34:20;101124.38;;;5.94;87.00
84947;BME280;75241;51.692;5.196;2024-03-23T01:36:46;101120.06;;;5.93;87.12
84947;BME280;75241;51.692;5.196;2024-03-23T01:39:12;101125.41;;;5.90;87.01
84947;BME280;75241;51.692;5.196;2024-03-23T01:41:37;101123.72;;;5.87;87.03
84947;BME280;75241;51.692;5.196;2024-03-23T01:44:07;101128.03;;;5.88;87.00
84947;BME280;75241;51.692;5.196;2024-03-23T01:46:33;101118.59;;;5.84;87.07
84947;BME280;75241;51.692;5.196;2024-03-23T01:48:59;101111.72;;;5.81;86.81
84947;BME280;75241;51.692;5.196;2024-03-23T01:51:25;101111.72;;;5.81;86.86
84947;BME280;75241;51.692;5.196;2024-03-23T01:53:52;101106.59;;;5.78;86.77
84947;BME280;75241;51.692;5.196;2024-03-23T01:56:20;101094.56;;;5.74;86.86
84947;BME280;75241;51.692;5.196;2024-03-23T01:58:45;101093.69;;;5.74;86.89
84947;BME280;75241;51.692;5.196;2024-03-23T02:01:11;101091.22;;;5.71;86.47
84947;BME280;75241;51.692;5.196;2024-03-23T02:03:37;101094.78;;;5.66;85.99
84947;BME280;75241;51.692;5.196;2024-03-23T02:06:02;101092.09;;;5.70;86.29
84947;BME280;75241;51.692;5.196;2024-03-23T02:08:29;101091.22;;;5.69;86.29
84947;BME280;75241;51.692;5.196;2024-03-23T02:10:56;101095.59;;;5.69;86.44
84947;BME280;75241;51.692;5.196;2024-03-23T02:13:21;101086.91;;;5.68;86.34
84947;BME280;75241;51.692;5.196;2024-03-23T02:15:47;101092.94;;;5.70;86.62
84947;BME280;75241;51.692;5.196;2024-03-23T02:18:13;101085.19;;;5.69;86.40
84947;BME280;75241;51.692;5.196;2024-03-23T02:20:39;101075.63;;;5.69;86.63
84947;BME280;75241;51.692;5.196;2024-03-23T02:23:05;101081.72;;;5.68;86.60
84947;BME280;75241;51.692;5.196;2024-03-23T02:25:31;101083.50;;;5.66;86.48
84947;BME280;75241;51.692;5.196;2024-03-23T02:27:56;101077.50;;;5.64;86.47
84947;BME280;75241;51.692;5.196;2024-03-23T02:30:23;101077.59;;;5.61;86.46
84947;BME280;75241;51.692;5.196;2024-03-23T02:32:49;101079.31;;;5.60;86.28
84947;BME280;75241;51.692;5.196;2024-03-23T02:35:14;101082.88;;;5.58;86.16
84947;BME280;75241;51.692;5.196;2024-03-23T02:37:40;101084.66;;;5.56;85.97
84947;BME280;75241;51.692;5.196;2024-03-23T02:40:05;101087.31;;;5.54;85.91
84947;BME280;75241;51.692;5.196;2024-03-23T02:42:31;101089.94;;;5.53;85.66
84947;BME280;75241;51.692;5.196;2024-03-23T02:44:57;101090.03;;;5.49;85.13
84947;BME280;75241;51.692;5.196;2024-03-23T02:47:23;101082.25;;;5.48;85.42
84947;BME280;75241;51.692;5.196;2024-03-23T02:49:48;101084.97;;;5.43;85.13
84947;BME280;75241;51.692;5.196;2024-03-23T02:52:13;101078.13;;;5.41;84.77
84947;BME280;75241;51.692;5.196;2024-03-23T02:54:39;101077.38;;;5.35;84.90
84947;BME280;75241;51.692;5.196;2024-03-23T02:57:04;101082.75;;;5.29;84.99
84947;BME280;75241;51.692;5.196;2024-03-23T02:59:30;101076.81;;;5.23;85.00
84947;BME280;75241;51.692;5.196;2024-03-23T03:01:55;101085.63;;;5.17;84.96
84947;BME280;75241;51.692;5.196;2024-03-23T03:04:21;101084.91;;;5.12;85.08
84947;BME280;75241;51.692;5.196;2024-03-23T03:06:47;101083.31;;;5.06;84.91
84947;BME280;75241;51.692;5.196;2024-03-23T03:09:13;101086.03;;;5.01;84.98
84947;BME280;75241;51.692;5.196;2024-03-23T03:11:38;101087.00;;;4.96;84.63
84947;BME280;75241;51.692;5.196;2024-03-23T03:14:03;101087.13;;;4.91;84.69
84947;BME280;75241;51.692;5.196;2024-03-23T03:16:29;101088.94;;;4.87;84.78
84947;BME280;75241;51.692;5.196;2024-03-23T03:18:54;101088.25;;;4.81;84.21
84947;BME280;75241;51.692;5.196;2024-03-23T03:21:21;101084.00;;;4.77;84.49
84947;BME280;75241;51.692;5.196;2024-03-23T03:23:47;101081.50;;;4.72;84.72
84947;BME280;75241;51.692;5.196;2024-03-23T03:26:15;101080.81;;;4.65;84.72
84947;BME280;75241;51.692;5.196;2024-03-23T03:28:40;101080.03;;;4.60;84.56
84947;BME280;75241;51.692;5.196;2024-03-23T03:31:06;101071.50;;;4.55;84.93
84947;BME280;75241;51.692;5.196;2024-03-23T03:33:31;101085.50;;;4.49;84.94
84947;BME280;75241;51.692;5.196;2024-03-23T03:35:57;101066.56;;;4.44;84.95
84947;BME280;75241;51.692;5.196;2024-03-23T03:38:22;101070.97;;;4.39;85.16
84947;BME280;75241;51.692;5.196;2024-03-23T03:40:48;101080.63;;;4.34;85.33
84947;BME280;75241;51.692;5.196;2024-03-23T03:43:13;101076.38;;;4.29;85.52
84947;BME280;75241;51.692;5.196;2024-03-23T03:45:38;101071.25;;;4.26;85.61
84947;BME280;75241;51.692;5.196;2024-03-23T03:48:04;101062.69;;;4.23;85.67
84947;BME280;75241;51.692;5.196;2024-03-23T03:50:30;101066.22;;;4.19;85.63
84947;BME280;75241;51.692;5.196;2024-03-23T03:52:55;101064.59;;;4.15;85.85
84947;BME280;75241;51.692;5.196;2024-03-23T03:55:21;101068.09;;;4.12;86.18
84947;BME280;75241;51.692;5.196;2024-03-23T03:57:46;101063.84;;;4.09;86.33
84947;BME280;75241;51.692;5.196;2024-03-23T04:00:12;101060.44;;;4.06;86.51
84947;BME280;75241;51.692;5.196;2024-03-23T04:02:38;101057.03;;;4.04;86.51
84947;BME280;75241;51.692;5.196;2024-03-23T04:05:04;101064.03;;;4.00;86.70
84947;BME280;75241;51.692;5.196;2024-03-23T04:07:30;101055.41;;;3.98;86.53
84947;BME280;75241;51.692;5.196;2024-03-23T04:09:55;101057.19;;;3.96;86.92
84947;BME280;75241;51.692;5.196;2024-03-23T04:12:21;101052.06;;;3.93;86.97
84947;BME280;75241;51.692;5.196;2024-03-23T04:14:46;101054.69;;;3.91;86.67
84947;BME280;75241;51.692;5.196;2024-03-23T04:17:11;101047.00;;;3.87;86.96
84947;BME280;75241;51.692;5.196;2024-03-23T04:19:37;101051.41;;;3.83;86.85
84947;BME280;75241;51.692;5.196;2024-03-23T04:22:02;101053.19;;;3.81;87.03
84947;BME280;75241;51.692;5.196;2024-03-23T04:24:29;101061.00;;;3.78;87.30
84947;BME280;75241;51.692;5.196;2024-03-23T04:26:54;101056.75;;;3.75;87.26
84947;BME280;75241;51.692;5.196;2024-03-23T04:29:20;101053.31;;;3.73;87.47
84947;BME280;75241;51.692;5.196;2024-03-23T04:31:45;101052.50;;;3.70;87.79
84947;BME280;75241;51.692;5.196;2024-03-23T04:34:11;101051.72;;;3.67;87.63
84947;BME280;75241;51.692;5.196;2024-03-23T04:36:36;101057.78;;;3.65;87.76
84947;BME280;75241;51.692;5.196;2024-03-23T04:39:02;101053.53;;;3.62;87.72
84947;BME280;75241;51.692;5.196;2024-03-23T04:41:27;101055.28;;;3.60;87.76
84947;BME280;75241;51.692;5.196;2024-03-23T04:43:53;101059.66;;;3.58;87.94
84947;BME280;75241;51.692;5.196;2024-03-23T04:46:18;101057.94;;;3.57;87.86
84947;BME280;75241;51.692;5.196;2024-03-23T04:48:44;101053.66;;;3.55;88.18
84947;BME280;75241;51.692;5.196;2024-03-23T04:51:10;101051.13;;;3.53;87.98
84947;BME280;75241;51.692;5.196;2024-03-23T04:53:38;101042.50;;;3.51;88.23
84947;BME280;75241;51.692;5.196;2024-03-23T04:56:03;101042.56;;;3.48;88.02
84947;BME280;75241;51.692;5.196;2024-03-23T04:58:29;101031.34;;;3.46;87.85
84947;BME280;75241;51.692;5.196;2024-03-23T05:00:58;101038.34;;;3.42;87.69
84947;BME280;75241;51.692;5.196;2024-03-23T05:03:23;101041.84;;;3.40;87.84
84947;BME280;75241;51.692;5.196;2024-03-23T05:05:49;101041.91;;;3.36;88.10
84947;BME280;75241;51.692;5.196;2024-03-23T05:08:15;101040.22;;;3.34;87.94
84947;BME280;75241;51.692;5.196;2024-03-23T05:10:44;101046.28;;;3.33;88.07
84947;BME280;75241;51.692;5.196;2024-03-23T05:13:10;101044.59;;;3.30;87.98
84947;BME280;75241;51.692;5.196;2024-03-23T05:15:36;101040.31;;;3.28;88.02
84947;BME280;75241;51.692;5.196;2024-03-23T05:18:01;101040.31;;;3.28;87.83
84947;BME280;75241;51.692;5.196;2024-03-23T05:20:27;101043.84;;;3.24;87.96
84947;BME280;75241;51.692;5.196;2024-03-23T05:22:54;101042.13;;;3.22;87.99
84947;BME280;75241;51.692;5.196;2024-03-23T05:25:19;101043.06;;;3.20;87.98
84947;BME280;75241;51.692;5.196;2024-03-23T05:27:45;101036.19;;;3.17;88.05
84947;BME280;75241;51.692;5.196;2024-03-23T05:30:10;101052.63;;;3.16;87.81
84947;BME280;75241;51.692;5.196;2024-03-23T05:32:36;101045.75;;;3.14;87.96
84947;BME280;75241;51.692;5.196;2024-03-23T05:35:01;101048.31;;;3.14;87.90
84947;BME280;75241;51.692;5.196;2024-03-23T05:37:27;101052.63;;;3.15;87.85
84947;BME280;75241;51.692;5.196;2024-03-23T05:39:52;101054.38;;;3.14;87.91
84947;BME280;75241;51.692;5.196;2024-03-23T05:42:18;101056.09;;;3.14;87.88
84947;BME280;75241;51.692;5.196;2024-03-23T05:44:47;101050.91;;;3.15;88.13
84947;BME280;75241;51.692;5.196;2024-03-23T05:47:13;101053.47;;;3.17;88.02
84947;BME280;75241;51.692;5.196;2024-03-23T05:49:42;101048.19;;;3.21;88.30
84947;BME280;75241;51.692;5.196;2024-03-23T05:52:08;101049.84;;;3.27;88.21
84947;BME280;75241;51.692;5.196;2024-03-23T05:54:34;101055.84;;;3.31;88.18
84947;BME280;75241;51.692;5.196;2024-03-23T05:56:59;101046.31;;;3.31;88.16
84947;BME280;75241;51.692;5.196;2024-03-23T05:59:25;101040.25;;;3.32;88.11
84947;BME280;75241;51.692;5.196;2024-03-23T06:01:50;101041.94;;;3.33;87.93
84947;BME280;75241;51.692;5.196;2024-03-23T06:04:17;101049.69;;;3.36;87.84
84947;BME280;75241;51.692;5.196;2024-03-23T06:06:42;101042.69;;;3.40;87.99
84947;BME280;75241;51.692;5.196;2024-03-23T06:09:08;101044.38;;;3.43;87.54
84947;BME280;75241;51.692;5.196;2024-03-23T06:11:33;101051.25;;;3.45;87.67
84947;BME280;75241;51.692;5.196;2024-03-23T06:13:58;101057.28;;;3.47;87.69
84947;BME280;75241;51.692;5.196;2024-03-23T06:16:24;101055.47;;;3.49;87.79
84947;BME280;75241;51.692;5.196;2024-03-23T06:18:53;101049.34;;;3.55;87.59
84947;BME280;75241;51.692;5.196;2024-03-23T06:21:18;101052.63;;;3.63;87.61
84947;BME280;75241;51.692;5.196;2024-03-23T06:23:44;101049.84;;;3.74;87.62
84947;BME280;75241;51.692;5.196;2024-03-23T06:26:19;101056.50;;;3.88;87.50
84947;BME280;75241;51.692;5.196;2024-03-23T06:28:45;101054.50;;;4.01;87.02
84947;BME280;75241;51.692;5.196;2024-03-23T06:31:11;101049.03;;;4.13;86.98
84947;BME280;75241;51.692;5.196;2024-03-23T06:33:36;101055.72;;;4.25;86.94
84947;BME280;75241;51.692;5.196;2024-03-23T06:36:03;101052.13;;;4.31;86.21
84947;BME280;75241;51.692;5.196;2024-03-23T06:38:29;101049.44;;;4.35;85.91
84947;BME280;75241;51.692;5.196;2024-03-23T06:40:54;101058.81;;;4.41;86.00
84947;BME280;75241;51.692;5.196;2024-03-23T06:43:19;101061.25;;;4.50;85.42
84947;BME280;75241;51.692;5.196;2024-03-23T06:45:52;101062.78;;;4.57;85.53
84947;BME280;75241;51.692;5.196;2024-03-23T06:48:18;101054.88;;;4.64;85.56
84947;BME280;75241;51.692;5.196;2024-03-23T06:50:44;101061.69;;;4.68;85.27
84947;BME280;75241;51.692;5.196;2024-03-23T06:53:09;101054.72;;;4.70;85.10
84947;BME280;75241;51.692;5.196;2024-03-23T06:55:35;101060.72;;;4.72;84.67
84947;BME280;75241;51.692;5.196;2024-03-23T06:58:00;101063.19;;;4.78;84.90
84947;BME280;75241;51.692;5.196;2024-03-23T07:00:26;101063.06;;;4.83;84.80
84947;BME280;75241;51.692;5.196;2024-03-23T07:02:51;101063.00;;;4.86;84.21
84947;BME280;75241;51.692;5.196;2024-03-23T07:05:16;101059.53;;;4.85;83.78
84947;BME280;75241;51.692;5.196;2024-03-23T07:07:42;101063.03;;;4.84;83.23
84947;BME280;75241;51.692;5.196;2024-03-23T07:10:07;101064.81;;;4.82;83.27
84947;BME280;75241;51.692;5.196;2024-03-23T07:12:33;101062.31;;;4.79;83.31
84947;BME280;75241;51.692;5.196;2024-03-23T07:14:58;101065.81;;;4.77;83.38
84947;BME280;75241;51.692;5.196;2024-03-23T07:17:23;101063.25;;;4.75;83.24
84947;BME280;75241;51.692;5.196;2024-03-23T07:19:49;101061.50;;;4.75;83.37
84947;BME280;75241;51.692;5.196;2024-03-23T07:22:14;101067.53;;;4.78;83.40
84947;BME280;75241;51.692;5.196;2024-03-23T07:24:41;101064.84;;;4.81;83.89
84947;BME280;75241;51.692;5.196;2024-03-23T07:27:06;101067.38;;;4.84;84.12
84947;BME280;75241;51.692;5.196;2024-03-23T07:29:35;101064.66;;;4.88;84.38
84947;BME280;75241;51.692;5.196;2024-03-23T07:32:01;101064.44;;;4.98;84.44
84947;BME280;75241;51.692;5.196;2024-03-23T07:34:26;101066.72;;;5.10;84.48
84947;BME280;75241;51.692;5.196;2024-03-23T07:36:51;101065.50;;;5.25;84.95
84947;BME280;75241;51.692;5.196;2024-03-23T07:39:17;101058.19;;;5.40;84.78
84947;BME280;75241;51.692;5.196;2024-03-23T07:41:45;101064.78;;;5.53;84.68
84947;BME280;75241;51.692;5.196;2024-03-23T07:44:11;101059.31;;;5.62;84.61
84947;BME280;75241;51.692;5.196;2024-03-23T07:46:36;101056.59;;;5.67;84.42
84947;BME280;75241;51.692;5.196;2024-03-23T07:49:04;101053.81;;;5.73;84.21
84947;BME280;75241;51.692;5.196;2024-03-23T07:51:29;101063.34;;;5.74;83.70
84947;BME280;75241;51.692;5.196;2024-03-23T07:53:54;101061.44;;;5.79;83.27
84947;BME280;75241;51.692;5.196;2024-03-23T07:56:20;101064.72;;;5.86;82.71
84947;BME280;75241;51.692;5.196;2024-03-23T07:58:47;101065.41;;;5.93;81.77
84947;BME280;75241;51.692;5.196;2024-03-23T08:01:15;101054.78;;;6.02;81.78
84947;BME280;75241;51.692;5.196;2024-03-23T08:03:42;101054.59;;;6.08;80.37
84947;BME280;75241;51.692;5.196;2024-03-23T08:06:13;101046.59;;;6.15;79.50
84947;BME280;75241;51.692;5.196;2024-03-23T08:08:40;101055.91;;;6.23;79.68
84947;BME280;75241;51.692;5.196;2024-03-23T08:11:06;101058.16;;;6.34;79.40
84947;BME280;75241;51.692;5.196;2024-03-23T08:13:34;101058.75;;;6.44;78.55
84947;BME280;75241;51.692;5.196;2024-03-23T08:16:00;101052.63;;;6.45;77.90
84947;BME280;75241;51.692;5.196;2024-03-23T08:18:27;101060.44;;;6.45;78.11
84947;BME280;75241;51.692;5.196;2024-03-23T08:21:03;101062.44;;;6.37;76.42
84947;BME280;75241;51.692;5.196;2024-03-23T08:23:32;101045.19;;;6.33;76.78
84947;BME280;75241;51.692;5.196;2024-03-23T08:26:07;101053.16;;;6.28;77.59
84947;BME280;75241;51.692;5.196;2024-03-23T08:28:33;101060.16;;;6.26;77.74
84947;BME280;75241;51.692;5.196;2024-03-23T08:31:05;101045.47;;;6.23;75.68
84947;BME280;75241;51.692;5.196;2024-03-23T08:33:31;101056.47;;;6.33;76.25
84947;BME280;75241;51.692;5.196;2024-03-23T08:36:04;101049.22;;;6.43;75.95
84947;BME280;75241;51.692;5.196;2024-03-23T08:38:29;101048.72;;;6.60;75.38
84947;BME280;75241;51.692;5.196;2024-03-23T08:41:11;101048.19;;;6.76;75.24
84947;BME280;75241;51.692;5.196;2024-03-23T08:43:38;101054.78;;;6.87;76.30
84947;BME280;75241;51.692;5.196;2024-03-23T08:46:05;101065.13;;;6.91;74.31
84947;BME280;75241;51.692;5.196;2024-03-23T08:48:32;101058.25;;;6.88;74.40
84947;BME280;75241;51.692;5.196;2024-03-23T08:51:08;101056.63;;;6.84;72.64
84947;BME280;75241;51.692;5.196;2024-03-23T08:53:35;101053.22;;;6.82;73.21
84947;BME280;75241;51.692;5.196;2024-03-23T08:56:00;101052.56;;;6.75;73.12
84947;BME280;75241;51.692;5.196;2024-03-23T08:58:27;101057.19;;;6.67;72.81
84947;BME280;75241;51.692;5.196;2024-03-23T09:00:53;101052.25;;;6.57;72.82
84947;BME280;75241;51.692;5.196;2024-03-23T09:03:22;101057.69;;;6.50;72.74
84947;BME280;75241;51.692;5.196;2024-03-23T09:05:47;101053.44;;;6.47;72.78
84947;BME280;75241;51.692;5.196;2024-03-23T09:08:13;101048.97;;;6.51;72.54
84947;BME280;75241;51.692;5.196;2024-03-23T09:10:39;101053.13;;;6.58;70.69
84947;BME280;75241;51.692;5.196;2024-03-23T09:13:06;101053.53;;;6.72;71.58
84947;BME280;75241;51.692;5.196;2024-03-23T09:15:35;101047.81;;;6.88;71.03
84947;BME280;75241;51.692;5.196;2024-03-23T09:18:01;101044.91;;;6.97;70.27
84947;BME280;75241;51.692;5.196;2024-03-23T09:20:26;101047.56;;;6.96;69.73
84947;BME280;75241;51.692;5.196;2024-03-23T09:22:52;101033.09;;;6.87;68.87
84947;BME280;75241;51.692;5.196;2024-03-23T09:25:17;101035.94;;;6.79;69.12
84947;BME280;75241;51.692;5.196;2024-03-23T09:27:42;101034.41;;;6.72;69.18
84947;BME280;75241;51.692;5.196;2024-03-23T09:30:10;101038.13;;;6.65;68.71
84947;BME280;75241;51.692;5.196;2024-03-23T09:32:36;101037.25;;;6.64;68.61
84947;BME280;75241;51.692;5.196;2024-03-23T09:35:01;101035.31;;;6.71;68.54
84947;BME280;75241;51.692;5.196;2024-03-23T09:37:26;101026.00;;;6.91;68.33
84947;BME280;75241;51.692;5.196;2024-03-23T09:39:52;101043.50;;;7.14;68.15
84947;BME280;75241;51.692;5.196;2024-03-23T09:42:17;101036.72;;;7.33;67.50
84947;BME280;75241;51.692;5.196;2024-03-23T09:44:43;101023.94;;;7.51;66.73
84947;BME280;75241;51.692;5.196;2024-03-23T09:47:09;101014.94;;;7.60;65.39
84947;BME280;75241;51.692;5.196;2024-03-23T09:49:35;101022.47;;;7.68;65.42
84947;BME280;75241;51.692;5.196;2024-03-23T09:52:03;101027.31;;;7.78;65.63
84947;BME280;75241;51.692;5.196;2024-03-23T09:54:29;101033.72;;;7.93;64.64
84947;BME280;75241;51.692;5.196;2024-03-23T09:56:55;101035.13;;;8.02;63.46
84947;BME280;75241;51.692;5.196;2024-03-23T09:59:20;101034.59;;;8.16;61.24
84947;BME280;75241;51.692;5.196;2024-03-23T10:01:46;101028.97;;;8.27;60.85
84947;BME280;75241;51.692;5.196;2024-03-23T10:04:12;101035.06;;;8.27;60.75
84947;BME280;75241;51.692;5.196;2024-03-23T10:07:10;101034.31;;;8.24;61.00
84947;BME280;75241;51.692;5.196;2024-03-23T10:09:36;101049.53;;;8.13;61.39
84947;BME280;75241;51.692;5.196;2024-03-23T10:12:11;101048.38;;;7.98;62.00
84947;BME280;75241;51.692;5.196;2024-03-23T10:14:41;101036.22;;;7.96;63.41
84947;BME280;75241;51.692;5.196;2024-03-23T10:17:21;101042.78;;;8.07;63.98
84947;BME280;75241;51.692;5.196;2024-03-23T10:19:52;101037.97;;;8.20;63.62
84947;BME280;75241;51.692;5.196;2024-03-23T10:22:22;101037.81;;;8.23;62.23
84947;BME280;75241;51.692;5.196;2024-03-23T10:24:48;101038.91;;;8.17;61.72
84947;BME280;75241;51.692;5.196;2024-03-23T10:27:19;101032.13;;;8.13;61.47
84947;BME280;75241;51.692;5.196;2024-03-23T10:29:45;101037.47;;;8.10;61.90
84947;BME280;75241;51.692;5.196;2024-03-23T10:32:11;101031.06;;;8.17;62.52
84947;BME280;75241;51.692;5.196;2024-03-23T10:34:37;101039.59;;;8.22;63.26
84947;BME280;75241;51.692;5.196;2024-03-23T10:37:04;101041.34;;;8.22;63.81
84947;BME280;75241;51.692;5.196;2024-03-23T10:39:37;101033.75;;;8.16;63.42
84947;BME280;75241;51.692;5.196;2024-03-23T10:42:04;101025.53;;;8.03;63.36
84947;BME280;75241;51.692;5.196;2024-03-23T10:44:30;101024.19;;;7.92;61.87
84947;BME280;75241;51.692;5.196;2024-03-23T10:47:01;101029.50;;;7.89;60.50
84947;BME280;75241;51.692;5.196;2024-03-23T10:49:34;101009.78;;;7.82;60.10
84947;BME280;75241;51.692;5.196;2024-03-23T10:52:01;101035.44;;;7.71;61.09
84947;BME280;75241;51.692;5.196;2024-03-23T10:54:27;101040.56;;;7.48;62.81
84947;BME280;75241;51.692;5.196;2024-03-23T10:57:13;101024.75;;;7.28;63.69
84947;BME280;75241;51.692;5.196;2024-03-23T10:59:40;101040.16;;;7.10;64.35
84947;BME280;75241;51.692;5.196;2024-03-23T11:02:06;101029.25;;;6.97;64.46
84947;BME280;75241;51.692;5.196;2024-03-23T11:04:38;101041.00;;;6.84;63.91
84947;BME280;75241;51.692;5.196;2024-03-23T11:09:55;101035.03;;;6.80;64.69
84947;BME280;75241;51.692;5.196;2024-03-23T11:15:01;101029.13;;;7.27;63.86
84947;BME280;75241;51.692;5.196;2024-03-23T11:17:27;101034.09;;;7.59;63.85
84947;BME280;75241;51.692;5.196;2024-03-23T11:20:06;101031.97;;;7.94;62.53
84947;BME280;75241;51.692;5.196;2024-03-23T11:25:03;101062.56;;;8.14;64.37
84947;BME280;75241;51.692;5.196;2024-03-23T11:27:28;101057.03;;;7.74;65.93
84947;BME280;75241;51.692;5.196;2024-03-23T11:29:54;101039.59;;;7.26;67.70
84947;BME280;75241;51.692;5.196;2024-03-23T11:32:19;101039.09;;;6.89;68.84
84947;BME280;75241;51.692;5.196;2024-03-23T11:34:44;101022.53;;;6.63;70.32
84947;BME280;75241;51.692;5.196;2024-03-23T11:37:10;101016.72;;;6.55;71.18
84947;BME280;75241;51.692;5.196;2024-03-23T11:39:35;101017.56;;;6.55;72.19
84947;BME280;75241;51.692;5.196;2024-03-23T11:42:01;101018.94;;;6.67;72.92
84947;BME280;75241;51.692;5.196;2024-03-23T11:44:26;101023.81;;;6.78;74.07
84947;BME280;75241;51.692;5.196;2024-03-23T11:46:52;101012.91;;;6.92;73.06
84947;BME280;75241;51.692;5.196;2024-03-23T11:51:48;101013.94;;;7.13;72.19
84947;BME280;75241;51.692;5.196;2024-03-23T11:54:13;101005.75;;;7.24;72.26
84947;BME280;75241;51.692;5.196;2024-03-23T11:56:39;101004.59;;;7.31;72.02
84947;BME280;75241;51.692;5.196;2024-03-23T11:59:04;100996.41;;;7.42;71.73
84947;BME280;75241;51.692;5.196;2024-03-23T12:01:30;100997.50;;;7.60;70.00
84947;BME280;75241;51.692;5.196;2024-03-23T12:03:56;101004.91;;;7.73;68.19
84947;BME280;75241;51.692;5.196;2024-03-23T12:06:21;100996.81;;;7.79;67.13
84947;BME280;75241;51.692;5.196;2024-03-23T12:08:47;100997.91;;;7.73;66.09
84947;BME280;75241;51.692;5.196;2024-03-23T12:11:15;100999.81;;;7.68;66.10
84947;BME280;75241;51.692;5.196;2024-03-23T12:13:42;101020.31;;;7.55;65.42
84947;BME280;75241;51.692;5.196;2024-03-23T12:16:13;101015.81;;;7.35;66.19
84947;BME280;75241;51.692;5.196;2024-03-23T12:18:41;101006.81;;;7.18;66.27
84947;BME280;75241;51.692;5.196;2024-03-23T12:21:08;100986.78;;;7.19;66.84
84947;BME280;75241;51.692;5.196;2024-03-23T12:23:34;100985.22;;;7.39;67.13
84947;BME280;75241;51.692;5.196;2024-03-23T12:26:00;100986.22;;;7.60;66.27
84947;BME280;75241;51.692;5.196;2024-03-23T12:28:25;100984.47;;;7.84;64.93
84947;BME280;75241;51.692;5.196;2024-03-23T12:30:51;100976.81;;;8.02;63.22
84947;BME280;75241;51.692;5.196;2024-03-23T12:33:20;100997.19;;;8.16;61.67
84947;BME280;75241;51.692;5.196;2024-03-23T12:35:46;100993.28;;;8.26;59.72
84947;BME280;75241;51.692;5.196;2024-03-23T12:38:12;100990.63;;;8.27;59.48
84947;BME280;75241;51.692;5.196;2024-03-23T12:40:37;101008.03;;;8.29;59.49
84947;BME280;75241;51.692;5.196;2024-03-23T12:43:03;101020.19;;;8.06;59.80
84947;BME280;75241;51.692;5.196;2024-03-23T12:45:28;101008.34;;;7.73;62.20
84947;BME280;75241;51.692;5.196;2024-03-23T12:47:54;101006.09;;;7.39;63.44
84947;BME280;75241;51.692;5.196;2024-03-23T12:50:19;101004.13;;;7.20;64.54
84947;BME280;75241;51.692;5.196;2024-03-23T12:52:45;101014.72;;;7.15;64.25
84947;BME280;75241;51.692;5.196;2024-03-23T12:55:11;100996.94;;;7.27;64.76
84947;BME280;75241;51.692;5.196;2024-03-23T12:57:36;100984.06;;;7.47;64.50
84947;BME280;75241;51.692;5.196;2024-03-23T13:00:02;100987.28;;;7.78;62.74
84947;BME280;75241;51.692;5.196;2024-03-23T13:02:28;100994.47;;;7.95;60.11
84947;BME280;75241;51.692;5.196;2024-03-23T13:04:54;100996.19;;;8.18;59.99
84947;BME280;75241;51.692;5.196;2024-03-23T13:07:20;101004.25;;;8.36;59.58
84947;BME280;75241;51.692;5.196;2024-03-23T13:09:46;100997.06;;;8.41;60.02
84947;BME280;75241;51.692;5.196;2024-03-23T13:12:11;100996.28;;;8.17;59.81
84947;BME280;75241;51.692;5.196;2024-03-23T13:14:40;101011.66;;;7.78;61.46
84947;BME280;75241;51.692;5.196;2024-03-23T13:17:06;100986.56;;;7.50;63.67
84947;BME280;75241;51.692;5.196;2024-03-23T13:19:32;100979.81;;;7.19;65.36
84947;BME280;75241;51.692;5.196;2024-03-23T13:21:59;100985.63;;;7.02;66.04
84947;BME280;75241;51.692;5.196;2024-03-23T13:24:25;100982.63;;;6.88;67.01
84947;BME280;75241;51.692;5.196;2024-03-23T13:26:52;100987.06;;;6.86;67.33
84947;BME280;75241;51.692;5.196;2024-03-23T13:29:18;100988.53;;;6.93;67.72
84947;BME280;75241;51.692;5.196;2024-03-23T13:31:44;100979.78;;;6.96;67.50
84947;BME280;75241;51.692;5.196;2024-03-23T13:34:09;100976.53;;;6.89;67.95
84947;BME280;75241;51.692;5.196;2024-03-23T13:36:34;100977.38;;;6.89;68.54
84947;BME280;75241;51.692;5.196;2024-03-23T13:39:04;100962.69;;;6.87;69.06
84947;BME280;75241;51.692;5.196;2024-03-23T13:41:44;100970.50;;;6.87;69.24
84947;BME280;75241;51.692;5.196;2024-03-23T13:44:13;100961.78;;;6.88;69.83
84947;BME280;75241;51.692;5.196;2024-03-23T13:46:42;100961.53;;;6.96;69.24
84947;BME280;75241;51.692;5.196;2024-03-23T13:49:37;100954.22;;;7.06;69.40
84947;BME280;75241;51.692;5.196;2024-03-23T13:52:02;100949.53;;;7.15;69.56
84947;BME280;75241;51.692;5.196;2024-03-23T13:54:28;100944.72;;;7.28;69.76
84947;BME280;75241;51.692;5.196;2024-03-23T13:56:55;100936.69;;;7.58;70.26
84947;BME280;75241;51.692;5.196;2024-03-23T13:59:21;100926.75;;;7.90;70.02
84947;BME280;75241;51.692;5.196;2024-03-23T14:01:48;100923.53;;;8.28;69.08